createdAt,value
2019-02-12T00:02:25.577Z,94.00
2019-02-12T00:04:54.120Z,93.90
2019-02-12T00:07:22.696Z,93.80
2019-02-12T00:09:51.155Z,93.70
2019-02-12T00:12:19.615Z,93.60
2019-02-12T00:14:48.107Z,93.70
2019-02-12T00:17:16.643Z,93.70
2019-02-12T00:19:45.134Z,93.40
2019-02-12T00:22:13.625Z,93.20
2019-02-12T00:24:42.182Z,93.00
2019-02-12T00:27:10.747Z,92.80
2019-02-12T00:29:39.206Z,92.50
2019-02-12T00:32:07.706Z,92.40
2019-02-12T00:34:36.307Z,92.20
2019-02-12T00:37:04.790Z,91.90
2019-02-12T00:39:33.259Z,91.60
2019-02-12T00:42:01.746Z,91.70
2019-02-12T00:44:30.238Z,91.90
2019-02-12T00:46:58.728Z,92.10
2019-02-12T00:49:27.215Z,92.30
2019-02-12T00:51:55.747Z,92.50
2019-02-12T00:54:24.349Z,92.40
2019-02-12T00:56:53.004Z,92.40
2019-02-12T00:59:21.563Z,92.20
2019-02-12T01:01:50.028Z,92.20
2019-02-12T01:04:18.610Z,92.20
2019-02-12T01:06:47.162Z,92.60
2019-02-12T01:09:15.625Z,92.40
2019-02-12T01:11:44.423Z,92.50
2019-02-12T01:14:13.054Z,92.70
2019-02-12T01:16:41.682Z,92.80
2019-02-12T01:19:10.150Z,92.80
2019-02-12T01:21:38.635Z,92.80
2019-02-12T01:24:07.098Z,92.90
2019-02-12T01:26:35.587Z,93.00
2019-02-12T01:29:04.048Z,92.90
2019-02-12T01:31:32.616Z,92.80
2019-02-12T01:34:01.082Z,92.60
2019-02-12T01:36:29.633Z,92.40
2019-02-12T01:38:58.215Z,92.20
2019-02-12T01:41:26.752Z,92.10
2019-02-12T01:43:55.210Z,91.70
2019-02-12T01:46:23.694Z,91.50
2019-02-12T01:48:52.186Z,91.40
2019-02-12T01:51:20.779Z,91.50
2019-02-12T01:53:49.346Z,91.20
2019-02-12T01:56:17.815Z,91.10
2019-02-12T01:58:46.371Z,91.10
2019-02-12T02:01:14.947Z,91.10
2019-02-12T02:03:43.435Z,91.00
2019-02-12T02:06:11.898Z,91.10
2019-02-12T02:08:40.382Z,91.10
2019-02-12T02:11:08.846Z,91.00
2019-02-12T02:13:37.407Z,90.80
2019-02-12T02:16:05.942Z,90.90
2019-02-12T02:18:34.510Z,90.80
2019-02-12T02:21:02.995Z,90.60
2019-02-12T02:23:31.458Z,90.70
2019-02-12T02:25:59.971Z,90.70
2019-02-12T02:28:28.430Z,90.70
2019-02-12T02:30:56.914Z,90.60
2019-02-12T02:33:25.488Z,90.60
2019-02-12T02:35:53.971Z,90.50
2019-02-12T02:38:22.450Z,90.40
2019-02-12T02:40:50.934Z,90.30
2019-02-12T02:43:19.435Z,90.30
2019-02-12T02:45:47.896Z,90.30
2019-02-12T02:48:16.433Z,90.10
2019-02-12T02:50:45.002Z,90.10
2019-02-12T02:53:13.467Z,90.10
2019-02-12T02:55:41.955Z,90.00
2019-02-12T02:58:10.511Z,89.50
2019-02-12T03:00:38.972Z,89.80
2019-02-12T03:03:07.472Z,89.90
2019-02-12T03:05:36.004Z,89.70
2019-02-12T03:08:04.615Z,89.80
2019-02-12T03:10:33.108Z,90.00
2019-02-12T03:13:01.576Z,89.90
2019-02-12T03:15:30.150Z,90.00
2019-02-12T03:17:58.703Z,90.10
2019-02-12T03:20:27.162Z,90.20
2019-02-12T03:22:55.662Z,89.90
2019-02-12T03:25:24.199Z,90.10
2019-02-12T03:27:52.670Z,90.20
2019-02-12T03:30:21.228Z,90.20
2019-02-12T03:32:49.760Z,90.40
2019-02-12T03:35:18.359Z,90.50
2019-02-12T03:37:46.822Z,90.60
2019-02-12T03:40:15.303Z,90.80
2019-02-12T03:42:43.855Z,90.80
2019-02-12T03:45:13.555Z,91.00
2019-02-12T03:47:42.060Z,91.00
2019-02-12T03:50:11.886Z,91.30
2019-02-12T03:52:40.421Z,91.30
2019-02-12T03:55:13.274Z,91.20
2019-02-12T03:57:42.027Z,91.30
2019-02-12T04:00:15.399Z,91.20
2019-02-12T04:03:07.367Z,91.20
2019-02-12T04:05:37.665Z,91.30
2019-02-12T04:08:06.442Z,90.70
2019-02-12T04:10:35.015Z,90.80
2019-02-12T04:13:03.623Z,90.60
2019-02-12T04:15:32.254Z,90.50
2019-02-12T04:18:00.752Z,90.40
2019-02-12T04:20:29.356Z,90.20
2019-02-12T04:22:57.891Z,90.20
2019-02-12T04:25:26.403Z,90.30
2019-02-12T04:27:55.504Z,90.30
2019-02-12T04:30:24.304Z,90.10
2019-02-12T04:32:52.799Z,90.00
2019-02-12T04:35:21.328Z,89.80
2019-02-12T04:37:49.893Z,90.00
2019-02-12T04:40:18.355Z,89.70
2019-02-12T04:42:46.925Z,89.70
2019-02-12T04:45:15.531Z,89.60
2019-02-12T04:47:44.095Z,89.80
2019-02-12T04:50:14.606Z,90.00
2019-02-12T04:52:43.192Z,90.20
2019-02-12T04:55:12.498Z,90.30
2019-02-12T04:57:40.951Z,90.30
2019-02-12T05:00:36.115Z,90.30
2019-02-12T05:03:04.571Z,90.40
2019-02-12T05:05:33.062Z,90.50
2019-02-12T05:08:01.547Z,90.40
2019-02-12T05:10:33.155Z,90.50
2019-02-12T05:13:01.656Z,90.30
2019-02-12T05:15:30.199Z,90.00
2019-02-12T05:17:58.734Z,89.80
2019-02-12T05:20:27.295Z,89.30
2019-02-12T05:22:55.826Z,89.70
2019-02-12T05:25:24.394Z,89.00
2019-02-12T05:27:52.959Z,88.60
2019-02-12T05:30:21.497Z,88.70
2019-02-12T05:32:50.064Z,88.60
2019-02-12T05:35:18.555Z,88.70
2019-02-12T05:37:47.094Z,88.90
2019-02-12T05:40:15.683Z,89.20
2019-02-12T05:42:44.240Z,89.30
2019-02-12T05:45:13.353Z,89.50
2019-02-12T05:47:41.957Z,89.40
2019-02-12T05:50:12.760Z,89.20
2019-02-12T05:52:41.411Z,89.30
2019-02-12T05:55:10.383Z,89.10
2019-02-12T05:57:38.922Z,89.30
2019-02-12T06:00:17.453Z,88.80
2019-02-12T06:02:46.063Z,88.50
2019-02-12T06:05:25.574Z,88.30
2019-02-12T06:07:54.115Z,89.10
2019-02-12T06:10:22.848Z,89.70
2019-02-12T06:12:51.304Z,89.40
2019-02-12T06:15:19.934Z,89.00
2019-02-12T06:17:48.395Z,89.20
2019-02-12T06:20:16.967Z,89.30
2019-02-12T06:22:45.533Z,89.40
2019-02-12T06:25:14.108Z,89.00
2019-02-12T06:27:42.826Z,89.70
2019-02-12T06:30:11.459Z,90.40
2019-02-12T06:32:40.015Z,90.50
2019-02-12T06:35:09.799Z,91.00
2019-02-12T06:37:38.451Z,91.10
2019-02-12T06:40:11.424Z,91.20
2019-02-12T06:42:39.991Z,91.10
2019-02-12T06:45:13.572Z,91.00
2019-02-12T06:47:42.208Z,90.60
2019-02-12T06:50:14.086Z,90.70
2019-02-12T06:52:42.668Z,90.40
2019-02-12T06:55:11.793Z,90.40
2019-02-12T06:57:40.491Z,90.40
2019-02-12T07:00:13.996Z,90.50
2019-02-12T07:03:23.542Z,90.70
2019-02-12T07:05:55.482Z,90.70
2019-02-12T07:08:45.182Z,90.70
2019-02-12T07:11:33.278Z,90.40
2019-02-12T07:14:07.550Z,90.30
2019-02-12T07:16:44.767Z,90.30
2019-02-12T07:19:28.419Z,90.10
2019-02-12T07:22:06.087Z,90.10
2019-02-12T07:24:46.798Z,89.80
2019-02-12T07:27:33.663Z,90.10
2019-02-12T07:30:12.731Z,90.20
2019-02-12T07:32:51.386Z,89.90
2019-02-12T07:35:47.354Z,88.90
2019-02-12T07:38:53.790Z,88.70
2019-02-12T07:41:43.384Z,89.20
2019-02-12T07:44:26.794Z,89.10
2019-02-12T07:47:16.328Z,89.00
2019-02-12T07:49:59.973Z,88.90
2019-02-12T07:52:37.583Z,88.70
2019-02-12T07:55:26.031Z,88.70
2019-02-12T07:57:57.691Z,88.30
2019-02-12T08:00:43.687Z,87.40
2019-02-12T08:03:27.104Z,87.30
2019-02-12T08:06:32.719Z,87.50
2019-02-12T08:09:29.515Z,87.30
2019-02-12T08:12:09.682Z,87.10
2019-02-12T08:14:50.468Z,87.30
2019-02-12T08:17:33.875Z,87.10
2019-02-12T08:20:22.908Z,86.80
2019-02-12T08:23:18.005Z,86.40
2019-02-12T08:26:01.255Z,85.70
2019-02-12T08:28:38.830Z,84.80
2019-02-12T08:31:10.466Z,84.80
2019-02-12T08:33:53.554Z,84.30
2019-02-12T08:36:28.000Z,83.70
2019-02-12T08:39:02.019Z,83.30
2019-02-12T08:42:07.027Z,83.10
2019-02-12T08:45:18.678Z,82.80
2019-02-12T08:47:59.173Z,81.90
2019-02-12T08:50:30.737Z,80.00
2019-02-12T08:53:05.054Z,78.50
2019-02-12T08:55:39.254Z,77.80
2019-02-12T08:58:22.943Z,77.30
2019-02-12T09:01:00.557Z,76.00
2019-02-12T09:03:50.385Z,75.00
2019-02-12T09:06:24.555Z,74.20
2019-02-12T09:08:58.977Z,73.50
2019-02-12T09:11:39.495Z,72.80
2019-02-12T09:14:13.854Z,72.10
2019-02-12T09:16:45.507Z,72.40
2019-02-12T09:19:22.983Z,73.00
2019-02-12T09:21:57.379Z,72.70
2019-02-12T09:24:40.843Z,71.70
2019-02-12T09:27:27.430Z,71.90
2019-02-12T09:30:21.668Z,71.60
2019-02-12T09:33:11.527Z,71.30
2019-02-12T09:35:57.930Z,71.40
2019-02-12T09:38:50.611Z,70.80
2019-02-12T09:41:39.927Z,70.70
2019-02-12T09:44:17.367Z,70.40
2019-02-12T09:47:11.835Z,68.70
2019-02-12T09:50:16.303Z,69.20
2019-02-12T09:53:04.283Z,69.70
2019-02-12T09:55:38.655Z,68.10
2019-02-12T09:58:22.031Z,68.10
2019-02-12T10:00:58.887Z,68.00
2019-02-12T10:03:39.506Z,68.50
2019-02-12T10:06:21.727Z,68.70
2019-02-12T10:08:55.648Z,69.40
2019-02-12T10:11:54.098Z,69.40
2019-02-12T10:14:31.095Z,69.10
2019-02-12T10:17:20.439Z,70.20
2019-02-12T10:19:54.833Z,69.70
2019-02-12T10:22:35.123Z,69.00
2019-02-12T10:25:11.968Z,69.40
2019-02-12T10:28:10.510Z,70.80
2019-02-12T10:30:44.743Z,70.60
2019-02-12T10:33:13.363Z,70.40
2019-02-12T10:35:41.862Z,70.90
2019-02-12T10:40:40.837Z,70.70
2019-02-12T10:43:09.377Z,70.70
2019-02-12T10:45:37.931Z,70.90
2019-02-12T10:48:06.392Z,69.60
2019-02-12T10:50:34.871Z,68.90
2019-02-12T10:53:03.507Z,68.40
2019-02-12T10:55:32.075Z,68.00
2019-02-12T10:58:01.005Z,67.80
2019-02-12T11:00:29.639Z,68.20
2019-02-12T11:02:58.100Z,67.70
2019-02-12T11:05:26.646Z,67.10
2019-02-12T11:07:55.133Z,67.20
2019-02-12T11:10:23.694Z,66.10
2019-02-12T11:12:52.167Z,66.10
2019-02-12T11:15:20.651Z,66.50
2019-02-12T11:17:49.198Z,64.90
2019-02-12T11:20:17.739Z,65.10
2019-02-12T11:22:46.290Z,65.30
2019-02-12T11:25:14.927Z,64.90
2019-02-12T11:27:43.411Z,65.00
2019-02-12T11:30:13.314Z,65.00
2019-02-12T11:32:41.877Z,64.80
2019-02-12T11:35:11.846Z,64.40
2019-02-12T11:37:40.351Z,64.10
2019-02-12T11:40:11.225Z,64.30
2019-02-12T11:42:39.763Z,63.30
2019-02-12T11:45:15.298Z,62.60
2019-02-12T11:47:43.768Z,62.10
2019-02-12T11:50:12.330Z,62.30
2019-02-12T11:52:40.851Z,62.20
2019-02-12T11:55:14.801Z,61.70
2019-02-12T11:57:43.334Z,61.40
2019-02-12T12:00:15.667Z,61.80
2019-02-12T12:02:44.220Z,61.40
2019-02-12T12:05:12.848Z,61.60
2019-02-12T12:07:41.314Z,60.60
2019-02-12T12:10:10.987Z,61.60
2019-02-12T12:12:39.542Z,60.50
2019-02-12T12:15:12.703Z,60.40
2019-02-12T12:17:41.161Z,60.50
2019-02-12T12:20:12.659Z,60.10
2019-02-12T12:22:41.140Z,60.30
2019-02-12T12:25:30.464Z,60.50
2019-02-12T12:27:59.030Z,60.10
2019-02-12T12:30:27.491Z,60.00
2019-02-12T12:32:56.554Z,59.90
2019-02-12T12:35:25.218Z,59.80
2019-02-12T12:37:53.784Z,59.60
2019-02-12T12:40:22.362Z,59.50
2019-02-12T12:42:51.167Z,59.60
2019-02-12T12:45:19.838Z,58.40
2019-02-12T12:47:48.394Z,58.90
2019-02-12T12:50:16.923Z,59.60
2019-02-12T12:52:45.426Z,59.10
2019-02-12T12:55:13.887Z,59.10
2019-02-12T12:57:42.499Z,59.00
2019-02-12T13:00:16.013Z,59.70
2019-02-12T13:02:44.635Z,60.00
2019-02-12T13:05:13.170Z,59.50
2019-02-12T13:07:41.670Z,58.60
2019-02-12T13:10:12.792Z,57.60
2019-02-12T13:12:41.378Z,57.90
2019-02-12T13:15:12.283Z,57.80
2019-02-12T13:17:41.002Z,57.20
2019-02-12T13:20:14.746Z,56.50
2019-02-12T13:22:43.305Z,57.20
2019-02-12T13:25:12.629Z,57.60
2019-02-12T13:27:41.310Z,57.40
2019-02-12T13:30:17.683Z,56.80
2019-02-12T13:32:46.294Z,57.20
2019-02-12T13:35:15.140Z,55.80
2019-02-12T13:37:43.608Z,55.50
2019-02-12T13:40:13.005Z,55.70
2019-02-12T13:42:41.497Z,56.00
2019-02-12T13:45:16.843Z,56.50
2019-02-12T13:47:45.407Z,56.60
2019-02-12T13:50:14.205Z,56.80
2019-02-12T13:52:43.011Z,56.90
2019-02-12T13:55:17.268Z,57.00
2019-02-12T13:57:42.175Z,56.50
2019-02-12T14:00:18.010Z,57.10
2019-02-12T14:02:46.475Z,57.20
2019-02-12T14:05:26.152Z,56.90
2019-02-12T14:07:54.683Z,57.60
2019-02-12T14:10:23.249Z,57.20
2019-02-12T14:12:51.814Z,57.90
2019-02-12T14:15:20.346Z,57.50
2019-02-12T14:17:48.975Z,56.60
2019-02-12T14:20:18.071Z,56.00
2019-02-12T14:22:46.554Z,55.40
2019-02-12T14:25:16.035Z,55.20
2019-02-12T14:27:44.603Z,54.30
2019-02-12T14:30:17.956Z,54.60
2019-02-12T14:32:46.551Z,54.50
2019-02-12T14:35:15.082Z,54.60
2019-02-12T14:37:43.579Z,52.90
2019-02-12T14:40:14.457Z,54.30
2019-02-12T14:42:42.917Z,54.40
2019-02-12T14:45:19.412Z,54.10
2019-02-12T14:47:48.035Z,54.80
2019-02-12T14:50:21.424Z,55.30
2019-02-12T14:52:50.047Z,54.90
2019-02-12T14:55:18.531Z,54.90
2019-02-12T14:57:47.239Z,55.40
2019-02-12T15:00:17.267Z,55.40
2019-02-12T15:02:45.798Z,55.70
2019-02-12T15:05:14.327Z,55.30
2019-02-12T15:07:42.896Z,56.30
2019-02-12T15:10:13.184Z,55.80
2019-02-12T15:12:41.742Z,56.20
2019-02-12T15:15:10.951Z,56.40
2019-02-12T15:17:39.623Z,56.90
2019-02-12T15:20:10.310Z,56.70
2019-02-12T15:22:38.871Z,57.00
2019-02-12T15:25:09.538Z,57.80
2019-02-12T15:27:38.015Z,57.50
2019-02-12T15:30:17.047Z,58.10
2019-02-12T15:32:45.594Z,58.50
2019-02-12T15:35:14.494Z,58.90
2019-02-12T15:37:43.046Z,59.40
2019-02-12T15:40:19.067Z,59.10
2019-02-12T15:42:47.571Z,59.20
2019-02-12T15:45:21.089Z,59.80
2019-02-12T15:47:49.694Z,60.00
2019-02-12T15:50:18.247Z,60.70
2019-02-12T15:52:46.710Z,61.50
2019-02-12T15:55:15.277Z,62.00
2019-02-12T15:57:46.013Z,62.30
2019-02-12T16:00:20.551Z,63.70
2019-02-12T16:02:48.803Z,63.30
2019-02-12T16:05:17.265Z,63.80
2019-02-12T16:07:47.432Z,63.70
2019-02-12T16:10:20.262Z,64.10
2019-02-12T16:12:51.133Z,64.50
2019-02-12T16:15:22.361Z,64.60
2019-02-12T16:17:50.261Z,64.60
2019-02-12T16:20:18.899Z,63.60
2019-02-12T16:22:47.460Z,64.20
2019-02-12T16:25:16.130Z,65.30
2019-02-12T16:27:44.694Z,65.30
2019-02-12T16:30:20.652Z,65.50
2019-02-12T16:32:49.202Z,65.80
2019-02-12T16:35:18.304Z,66.50
2019-02-12T16:37:47.107Z,66.50
2019-02-12T16:40:17.566Z,67.10
2019-02-12T16:42:46.099Z,67.60
2019-02-12T16:45:29.654Z,67.90
2019-02-12T16:48:00.088Z,67.80
2019-02-12T16:50:28.395Z,68.40
2019-02-12T16:52:57.131Z,68.90
2019-02-12T16:55:25.598Z,68.50
2019-02-12T16:57:54.135Z,68.30
2019-02-12T17:00:22.701Z,68.80
2019-02-12T17:03:10.563Z,69.60
2019-02-12T17:05:39.979Z,70.10
2019-02-12T17:08:08.616Z,71.10
2019-02-12T17:10:37.100Z,71.20
2019-02-12T17:13:05.550Z,72.70
2019-02-12T17:15:34.130Z,72.80
2019-02-12T17:18:02.659Z,73.30
2019-02-12T17:20:31.215Z,73.30
2019-02-12T17:22:59.698Z,73.40
2019-02-12T17:25:28.270Z,74.00
2019-02-12T17:27:56.830Z,74.40
2019-02-12T17:30:25.430Z,75.10
2019-02-12T17:32:53.919Z,75.40
2019-02-12T17:35:22.480Z,76.00
2019-02-12T17:37:50.963Z,76.60
2019-02-12T17:40:19.615Z,76.90
2019-02-12T17:42:48.108Z,77.60
2019-02-12T17:45:18.227Z,77.80
2019-02-12T17:47:46.746Z,77.70
2019-02-12T17:50:15.917Z,77.90
2019-02-12T17:52:44.575Z,78.60
2019-02-12T17:55:13.262Z,78.70
2019-02-12T17:57:41.896Z,79.30
2019-02-12T18:00:17.126Z,79.50
2019-02-12T18:02:45.683Z,79.40
2019-02-12T18:05:14.590Z,79.50
2019-02-12T18:07:43.129Z,79.80
2019-02-12T18:10:12.395Z,79.90
2019-02-12T18:12:40.952Z,80.40
2019-02-12T18:15:11.818Z,81.00
2019-02-12T18:17:40.377Z,81.90
2019-02-12T18:20:11.635Z,82.40
2019-02-12T18:22:40.214Z,82.80
2019-02-12T18:25:10.215Z,83.60
2019-02-12T18:27:39.415Z,83.80
2019-02-12T18:30:15.933Z,84.00
2019-02-12T18:32:44.614Z,84.40
2019-02-12T18:35:13.155Z,84.40
2019-02-12T18:37:41.726Z,84.80
2019-02-12T18:40:15.306Z,85.20
2019-02-12T18:42:43.770Z,85.50
2019-02-12T18:45:15.231Z,85.80
2019-02-12T18:47:43.718Z,86.40
2019-02-12T18:50:12.843Z,87.00
2019-02-12T18:52:41.391Z,88.00
2019-02-12T18:55:12.635Z,87.60
2019-02-12T18:57:41.279Z,87.90
2019-02-12T19:00:18.372Z,88.30
2019-02-12T19:02:47.007Z,88.70
2019-02-12T19:05:15.542Z,89.20
2019-02-12T19:07:44.029Z,89.60
2019-02-12T19:10:17.047Z,90.00
2019-02-12T19:12:45.590Z,90.20
2019-02-12T19:15:17.175Z,90.30
2019-02-12T19:17:48.699Z,90.20
2019-02-12T19:20:17.238Z,90.00
2019-02-12T19:22:45.900Z,90.00
2019-02-12T19:25:14.462Z,90.10
2019-02-12T19:27:43.023Z,89.50
2019-02-12T19:30:16.186Z,89.30
2019-02-12T19:32:44.964Z,89.70
2019-02-12T19:35:13.583Z,90.00
2019-02-12T19:37:42.187Z,90.20
2019-02-12T19:40:12.096Z,90.30
2019-02-12T19:42:40.556Z,90.10
2019-02-12T19:45:14.383Z,90.40
2019-02-12T19:47:42.890Z,90.60
2019-02-12T19:50:12.022Z,90.40
2019-02-12T19:52:40.708Z,90.60
2019-02-12T19:55:11.418Z,90.80
2019-02-12T19:57:39.925Z,90.80
2019-02-12T20:00:15.804Z,90.90
2019-02-12T20:02:44.380Z,91.20
2019-02-12T20:05:13.367Z,90.80
2019-02-12T20:07:41.853Z,91.10
2019-02-12T20:10:11.858Z,90.90
2019-02-12T20:12:40.329Z,90.90
2019-02-12T20:15:16.835Z,90.90
2019-02-12T20:17:45.399Z,91.10
2019-02-12T20:20:14.284Z,91.40
2019-02-12T20:22:42.755Z,91.60
2019-02-12T20:25:11.883Z,91.90
2019-02-12T20:27:40.487Z,92.00
2019-02-12T20:30:14.618Z,92.10
2019-02-12T20:32:43.079Z,92.30
2019-02-12T20:35:13.630Z,92.50
2019-02-12T20:37:42.091Z,92.50
2019-02-12T20:40:12.696Z,92.40
2019-02-12T20:42:41.254Z,92.10
2019-02-12T20:45:12.555Z,91.90
2019-02-12T20:47:41.114Z,92.10
2019-02-12T20:50:12.662Z,92.30
2019-02-12T20:52:41.291Z,92.20
2019-02-12T20:55:11.111Z,91.90
2019-02-12T20:57:39.730Z,91.80
2019-02-12T21:00:24.495Z,91.50
2019-02-12T21:02:53.046Z,91.80
2019-02-12T21:05:21.583Z,91.90
2019-02-12T21:07:50.135Z,91.80
2019-02-12T21:10:20.141Z,91.80
2019-02-12T21:12:48.772Z,91.90
2019-02-12T21:15:28.762Z,91.40
2019-02-12T21:17:57.335Z,91.20
2019-02-12T21:20:25.790Z,91.00
2019-02-12T21:22:54.900Z,91.00
2019-02-12T21:25:23.394Z,91.10
2019-02-12T21:27:51.863Z,91.10
2019-02-12T21:30:41.211Z,91.20
2019-02-12T21:33:09.742Z,91.40
2019-02-12T21:35:38.227Z,91.80
2019-02-12T21:38:08.337Z,92.10
2019-02-12T21:40:36.871Z,92.20
2019-02-12T21:43:05.354Z,92.40
2019-02-12T21:45:33.955Z,92.80
2019-02-12T21:48:02.445Z,92.90
2019-02-12T21:50:31.008Z,93.00
2019-02-12T21:53:02.516Z,93.30
2019-02-12T21:55:31.091Z,93.30
2019-02-12T21:57:59.551Z,93.40
2019-02-12T22:00:28.122Z,93.70
2019-02-12T22:02:56.678Z,93.70
2019-02-12T22:05:25.211Z,94.10
2019-02-12T22:07:53.703Z,93.90
2019-02-12T22:10:27.841Z,93.90
2019-02-12T22:12:56.395Z,93.90
2019-02-12T22:15:24.933Z,93.80
2019-02-12T22:17:53.498Z,93.70
2019-02-12T22:20:28.162Z,93.50
2019-02-12T22:22:56.647Z,93.50
2019-02-12T22:25:25.110Z,93.50
2019-02-12T22:27:53.609Z,93.60
2019-02-12T22:30:25.810Z,93.60
2019-02-12T22:32:54.272Z,93.60
2019-02-12T22:35:22.759Z,93.50
2019-02-12T22:37:51.231Z,93.70
2019-02-12T22:40:19.786Z,93.50
2019-02-12T22:42:48.318Z,93.60
2019-02-12T22:45:19.416Z,93.60
2019-02-12T22:47:48.021Z,93.70
2019-02-12T22:50:16.638Z,93.70
2019-02-12T22:52:45.186Z,93.60
2019-02-12T22:55:13.858Z,93.70
2019-02-12T22:57:48.925Z,93.70
2019-02-12T23:00:18.386Z,93.70
2019-02-12T23:02:47.178Z,93.70
2019-02-12T23:05:15.640Z,93.50
2019-02-12T23:07:44.123Z,93.40
2019-02-12T23:10:12.850Z,93.10
2019-02-12T23:12:41.364Z,92.90
2019-02-12T23:15:10.647Z,92.60
2019-02-12T23:17:39.091Z,92.40
2019-02-12T23:20:07.719Z,92.30
2019-02-12T23:22:36.979Z,92.40
2019-02-12T23:25:06.474Z,92.20
2019-02-12T23:27:34.938Z,92.20
2019-02-12T23:30:04.566Z,92.10
2019-02-12T23:32:33.052Z,92.10
2019-02-12T23:35:01.588Z,92.10
2019-02-12T23:37:30.150Z,92.10
2019-02-12T23:39:58.674Z,92.00
2019-02-12T23:42:27.229Z,91.90
2019-02-12T23:44:55.774Z,91.80
2019-02-12T23:47:24.262Z,91.80
2019-02-12T23:49:52.726Z,91.70
2019-02-12T23:52:21.286Z,91.70
2019-02-12T23:54:49.767Z,91.80
2019-02-12T23:57:18.263Z,92.00
2019-02-12T23:59:46.718Z,92.20
